Time;durP1;ratioP1;P1;durP2;ratioP2;P2;SDS_P1;SDS_P2;PMS_P1;PMS_P2;Temp;Humidity;BMP_temperature;BMP_pressure;BME280_temperature;BME280_humidity;BME280_pressure;Samples;Min_cycle;Max_cycle;Signal;HPM_P1;HPM_P2
2022/11/28 00:01:49;;;;;;;10.87;7.10;;;;;;;;;;5038744;28;20194;-81
2022/11/28 00:04:14;;;;;;;15.63;8.43;;;;;;;;;;5047890;28;20205;-82
2022/11/28 00:06:44;;;;;;;10.43;7.80;;;;;;;;;;5044151;28;20298;-82
2022/11/28 00:09:09;;;;;;;10.90;7.83;;;;;;;;;;5047876;28;20255;-81
2022/11/28 00:11:34;;;;;;;10.60;7.50;;;;;;;;;;5029544;28;20202;-81
2022/11/28 00:13:59;;;;;;;11.83;8.00;;;;;;;;;;5026989;28;20265;-82
2022/11/28 00:16:25;;;;;;;11.07;7.80;;;;;;;;;;5043761;28;20188;-82
2022/11/28 00:18:51;;;;;;;12.67;9.10;;;;;;;;;;5029109;28;20186;-81
2022/11/28 00:21:16;;;;;;;9.50;7.20;;;;;;;;;;5044098;28;20196;-82
2022/11/28 00:23:42;;;;;;;12.43;7.60;;;;;;;;;;5043086;28;20214;-82
2022/11/28 00:26:12;;;;;;;10.20;7.77;;;;;;;;;;5042569;28;20182;-82
2022/11/28 00:28:38;;;;;;;11.23;8.30;;;;;;;;;;5023708;28;20205;-82
2022/11/28 00:31:03;;;;;;;10.27;7.63;;;;;;;;;;5040740;28;20178;-82
2022/11/28 00:33:29;;;;;;;14.20;8.00;;;;;;;;;;5021633;28;20687;-81
2022/11/28 00:35:59;;;;;;;12.67;7.97;;;;;;;;;;5024016;28;20193;-81
2022/11/28 00:38:24;;;;;;;13.20;8.47;;;;;;;;;;5022084;28;20178;-82
2022/11/28 00:40:56;;;;;;;13.07;8.33;;;;;;;;;;5046877;28;20202;-81
2022/11/28 00:43:21;;;;;;;9.80;7.23;;;;;;;;;;5054859;28;20214;-82
2022/11/28 00:45:47;;;;;;;13.80;8.27;;;;;;;;;;5052450;28;20173;-80
2022/11/28 00:48:12;;;;;;;15.13;9.20;;;;;;;;;;5053509;28;20274;-80
2022/11/28 00:50:37;;;;;;;11.50;7.77;;;;;;;;;;5054023;28;20245;-82
2022/11/28 00:53:02;;;;;;;10.60;7.27;;;;;;;;;;5054646;28;20254;-82
2022/11/28 00:55:27;;;;;;;11.53;8.40;;;;;;;;;;5054507;28;20217;-82
2022/11/28 00:57:54;;;;;;;14.17;8.53;;;;;;;;;;5051920;28;20711;-82
2022/11/28 01:00:19;;;;;;;11.07;8.33;;;;;;;;;;5037998;28;20205;-82
2022/11/28 01:02:44;;;;;;;11.77;8.03;;;;;;;;;;5052642;28;20728;-82
2022/11/28 01:05:09;;;;;;;12.23;7.93;;;;;;;;;;5054246;28;20174;-82
2022/11/28 01:07:35;;;;;;;11.53;8.03;;;;;;;;;;5052332;28;20194;-82
2022/11/28 01:10:00;;;;;;;12.87;8.87;;;;;;;;;;5036856;28;20240;-82
2022/11/28 01:12:25;;;;;;;11.80;8.10;;;;;;;;;;5036425;28;20190;-83
2022/11/28 01:14:50;;;;;;;11.43;8.47;;;;;;;;;;5056159;28;20224;-82
2022/11/28 01:17:15;;;;;;;13.80;8.63;;;;;;;;;;5050396;28;20182;-82
2022/11/28 01:19:41;;;;;;;9.67;7.83;;;;;;;;;;5041893;28;20185;-82
2022/11/28 01:22:06;;;;;;;10.40;8.27;;;;;;;;;;5020818;28;20688;-82
2022/11/28 01:24:32;;;;;;;15.33;9.33;;;;;;;;;;5025613;28;20186;-82
2022/11/28 01:26:57;;;;;;;11.07;8.10;;;;;;;;;;5023222;28;20188;-82
2022/11/28 01:29:22;;;;;;;10.27;7.77;;;;;;;;;;5041194;28;20183;-82
2022/11/28 01:31:47;;;;;;;12.70;8.40;;;;;;;;;;5024387;28;20309;-82
2022/11/28 01:34:12;;;;;;;10.97;7.73;;;;;;;;;;5023613;28;20347;-82
2022/11/28 01:36:38;;;;;;;9.80;7.77;;;;;;;;;;5036394;28;20179;-82
2022/11/28 01:39:03;;;;;;;9.53;7.90;;;;;;;;;;5022994;28;20193;-82
2022/11/28 01:41:28;;;;;;;9.67;7.50;;;;;;;;;;5022705;28;20257;-82
2022/11/28 01:43:58;;;;;;;10.20;8.03;;;;;;;;;;5023619;28;20691;-82
2022/11/28 01:46:24;;;;;;;11.83;8.67;;;;;;;;;;5021686;28;20194;-82
2022/11/28 01:48:49;;;;;;;10.40;7.20;;;;;;;;;;5042666;28;20174;-83
2022/11/28 01:51:14;;;;;;;11.27;8.23;;;;;;;;;;5022078;28;20182;-82
2022/11/28 01:53:41;;;;;;;9.13;7.37;;;;;;;;;;5039788;28;20261;-82
2022/11/28 01:56:16;;;;;;;9.57;7.90;;;;;;;;;;5022625;28;20189;-83
2022/11/28 01:58:43;;;;;;;10.17;7.73;;;;;;;;;;5045781;28;20553;-82
2022/11/28 02:01:09;;;;;;;10.30;8.67;;;;;;;;;;5044245;28;20182;-82
2022/11/28 02:03:39;;;;;;;12.10;9.80;;;;;;;;;;5041431;28;20198;-82
2022/11/28 02:06:05;;;;;;;10.87;8.10;;;;;;;;;;5023577;28;20308;-82
2022/11/28 02:08:33;;;;;;;11.50;8.70;;;;;;;;;;5028950;28;20179;-82
2022/11/28 02:11:02;;;;;;;10.60;8.63;;;;;;;;;;5027414;28;20178;-81
2022/11/28 02:13:27;;;;;;;10.17;8.37;;;;;;;;;;5027360;28;20206;-81
2022/11/28 02:16:11;;;;;;;10.77;8.80;;;;;;;;;;5055154;28;20179;-81
2022/11/28 02:18:36;;;;;;;10.53;8.00;;;;;;;;;;5033693;28;20296;-81
2022/11/28 02:21:10;;;;;;;9.93;7.90;;;;;;;;;;5048163;28;20179;-81
2022/11/28 02:23:54;;;;;;;9.20;7.60;;;;;;;;;;5045812;28;20241;-82
2022/11/28 02:26:34;;;;;;;10.03;8.57;;;;;;;;;;5029103;28;20182;-81
2022/11/28 02:29:18;;;;;;;9.53;8.53;;;;;;;;;;5047322;28;20202;-81
2022/11/28 02:31:59;;;;;;;11.77;9.23;;;;;;;;;;5026099;28;20218;-81
2022/11/28 02:34:30;;;;;;;10.60;8.50;;;;;;;;;;5045538;28;20551;-82
2022/11/28 02:37:07;;;;;;;9.30;7.80;;;;;;;;;;5027572;28;20270;-81
2022/11/28 02:39:35;;;;;;;9.93;8.23;;;;;;;;;;5027742;28;20209;-81
2022/11/28 02:42:04;;;;;;;12.03;10.07;;;;;;;;;;5022734;28;20645;-80
2022/11/28 02:44:32;;;;;;;11.73;9.17;;;;;;;;;;5045125;28;20202;-82
2022/11/28 02:47:01;;;;;;;16.03;10.87;;;;;;;;;;5024207;28;20186;-81
2022/11/28 02:49:33;;;;;;;11.77;9.60;;;;;;;;;;5045884;28;20175;-81
2022/11/28 02:52:05;;;;;;;10.67;9.57;;;;;;;;;;5027722;28;20218;-81
2022/11/28 02:54:31;;;;;;;13.37;10.83;;;;;;;;;;5043189;28;20217;-81
2022/11/28 02:56:56;;;;;;;14.53;10.77;;;;;;;;;;5041841;28;20193;-81
2022/11/28 02:59:29;;;;;;;12.60;10.00;;;;;;;;;;5044383;28;20233;-81
2022/11/28 03:01:55;;;;;;;13.63;11.00;;;;;;;;;;5043314;28;20197;-81
2022/11/28 03:04:30;;;;;;;11.33;9.40;;;;;;;;;;5033352;28;20241;-80
2022/11/28 03:07:08;;;;;;;12.07;9.93;;;;;;;;;;5048888;28;20714;-81
2022/11/28 03:09:47;;;;;;;14.50;10.73;;;;;;;;;;5027689;28;20208;-81
2022/11/28 03:12:12;;;;;;;14.77;9.87;;;;;;;;;;5025088;28;20204;-80
2022/11/28 03:14:50;;;;;;;13.60;11.40;;;;;;;;;;5027055;28;20182;-81
2022/11/28 03:17:21;;;;;;;15.10;11.03;;;;;;;;;;5047816;28;20202;-81
2022/11/28 03:19:52;;;;;;;13.37;10.60;;;;;;;;;;5023713;28;20186;-80
2022/11/28 03:22:26;;;;;;;14.30;11.77;;;;;;;;;;5018538;28;20221;-81
2022/11/28 03:25:12;;;;;;;14.30;11.50;;;;;;;;;;5043330;28;20237;-80
2022/11/28 03:27:42;;;;;;;14.20;11.47;;;;;;;;;;4992341;28;20285;-80
2022/11/28 03:30:11;;;;;;;15.47;11.97;;;;;;;;;;5042945;28;20178;-81
2022/11/28 03:32:38;;;;;;;15.80;12.10;;;;;;;;;;5036105;28;20198;-81
2022/11/28 03:35:12;;;;;;;18.27;12.97;;;;;;;;;;5044060;28;20196;-80
2022/11/28 03:37:43;;;;;;;16.90;12.27;;;;;;;;;;5040022;28;20181;-80
2022/11/28 03:40:11;;;;;;;17.47;12.90;;;;;;;;;;5028290;28;20565;-80
2022/11/28 03:42:40;;;;;;;18.03;12.20;;;;;;;;;;5042232;28;20587;-80
2022/11/28 03:45:05;;;;;;;16.87;11.53;;;;;;;;;;5026161;28;20683;-80
2022/11/28 03:47:33;;;;;;;15.47;11.47;;;;;;;;;;5022318;28;20209;-80
2022/11/28 03:50:02;;;;;;;17.83;12.10;;;;;;;;;;5044755;28;20197;-80
2022/11/28 03:52:28;;;;;;;15.87;11.57;;;;;;;;;;5025373;28;20213;-80
2022/11/28 03:55:02;;;;;;;14.83;10.97;;;;;;;;;;5044370;28;20626;-80
2022/11/28 03:57:38;;;;;;;15.23;12.07;;;;;;;;;;5044106;28;20741;-80
2022/11/28 04:00:08;;;;;;;17.10;10.87;;;;;;;;;;5024441;28;20197;-80
2022/11/28 04:02:38;;;;;;;18.87;11.20;;;;;;;;;;5044200;28;20260;-83
2022/11/28 04:05:04;;;;;;;13.80;11.03;;;;;;;;;;5037610;28;20194;-79
2022/11/28 04:07:35;;;;;;;13.83;10.10;;;;;;;;;;5044534;28;20553;-80
2022/11/28 04:10:16;;;;;;;14.40;10.63;;;;;;;;;;5027100;28;20197;-80
2022/11/28 04:12:49;;;;;;;13.90;10.00;;;;;;;;;;5031931;28;20212;-80
2022/11/28 04:15:37;;;;;;;16.00;11.57;;;;;;;;;;5043274;28;20206;-80
2022/11/28 04:18:22;;;;;;;12.63;9.63;;;;;;;;;;5024955;28;20255;-82
2022/11/28 04:20:52;;;;;;;14.60;8.97;;;;;;;;;;5041720;28;20204;-80
2022/11/28 04:23:19;;;;;;;14.23;10.60;;;;;;;;;;5042936;28;20206;-80
2022/11/28 04:25:49;;;;;;;15.63;10.37;;;;;;;;;;5026593;28;20238;-81
2022/11/28 04:28:16;;;;;;;15.43;11.13;;;;;;;;;;5025461;28;20598;-80
2022/11/28 04:30:43;;;;;;;12.93;10.53;;;;;;;;;;5025598;28;20178;-80
2022/11/28 04:33:10;;;;;;;15.03;10.97;;;;;;;;;;5042338;28;20209;-80
2022/11/28 04:35:38;;;;;;;17.17;11.27;;;;;;;;;;5029161;28;20182;-79
2022/11/28 04:38:05;;;;;;;19.17;10.47;;;;;;;;;;5047513;28;20289;-80
2022/11/28 04:40:31;;;;;;;14.20;9.53;;;;;;;;;;5025021;28;20178;-80
2022/11/28 04:43:00;;;;;;;14.90;10.73;;;;;;;;;;5046081;28;20590;-80
2022/11/28 04:45:28;;;;;;;14.27;9.53;;;;;;;;;;5047676;28;20181;-80
2022/11/28 04:47:53;;;;;;;14.67;9.27;;;;;;;;;;5044028;28;20606;-80
2022/11/28 04:50:20;;;;;;;13.13;9.10;;;;;;;;;;5032406;28;20177;-79
2022/11/28 04:52:50;;;;;;;12.20;9.47;;;;;;;;;;5027175;28;20206;-79
2022/11/28 04:55:28;;;;;;;14.53;9.80;;;;;;;;;;5050221;28;20190;-80
2022/11/28 04:58:01;;;;;;;13.33;10.07;;;;;;;;;;5043519;28;20186;-82
2022/11/28 05:00:26;;;;;;;14.87;9.90;;;;;;;;;;5051484;28;20218;-82
2022/11/28 05:02:52;;;;;;;14.00;10.07;;;;;;;;;;5048562;28;20253;-80
2022/11/28 05:05:19;;;;;;;15.37;10.50;;;;;;;;;;5049631;28;20537;-80
2022/11/28 05:07:45;;;;;;;16.17;11.30;;;;;;;;;;5048592;28;20174;-80
2022/11/28 05:10:11;;;;;;;14.90;11.13;;;;;;;;;;5027434;28;20186;-80
2022/11/28 05:12:36;;;;;;;16.83;11.23;;;;;;;;;;5029626;28;20206;-80
2022/11/28 05:15:02;;;;;;;16.23;11.77;;;;;;;;;;5033680;28;20225;-80
2022/11/28 05:17:27;;;;;;;16.57;11.47;;;;;;;;;;5048276;28;20242;-81
2022/11/28 05:19:52;;;;;;;17.67;11.23;;;;;;;;;;5043084;28;20442;-81
2022/11/28 05:22:17;;;;;;;15.00;10.93;;;;;;;;;;5040830;28;20206;-80
2022/11/28 05:24:43;;;;;;;17.13;11.93;;;;;;;;;;5045350;28;20170;-81
2022/11/28 05:27:10;;;;;;;16.00;11.60;;;;;;;;;;5046996;28;21292;-81
2022/11/28 05:29:35;;;;;;;16.90;12.13;;;;;;;;;;5044461;28;20660;-81
2022/11/28 05:32:00;;;;;;;16.00;11.50;;;;;;;;;;5048105;28;20197;-80
2022/11/28 05:34:25;;;;;;;19.47;13.03;;;;;;;;;;5026280;28;20563;-82
2022/11/28 05:36:51;;;;;;;17.40;11.83;;;;;;;;;;5026604;28;20277;-80
2022/11/28 05:39:16;;;;;;;19.00;12.43;;;;;;;;;;5026441;28;20183;-81
2022/11/28 05:41:41;;;;;;;17.57;11.47;;;;;;;;;;5051058;28;20194;-81
2022/11/28 05:44:06;;;;;;;17.27;12.60;;;;;;;;;;5036447;28;20214;-81
2022/11/28 05:46:31;;;;;;;17.37;12.37;;;;;;;;;;5048461;28;20190;-81
2022/11/28 05:48:57;;;;;;;17.53;11.90;;;;;;;;;;5023266;28;20195;-82
2022/11/28 05:51:22;;;;;;;19.33;12.43;;;;;;;;;;5040905;28;20178;-82
2022/11/28 05:53:47;;;;;;;19.03;12.97;;;;;;;;;;5028781;28;20246;-82
2022/11/28 05:56:14;;;;;;;19.10;12.47;;;;;;;;;;5044657;28;20201;-82
2022/11/28 05:58:40;;;;;;;18.13;12.20;;;;;;;;;;5027285;28;20198;-81
2022/11/28 06:01:16;;;;;;;19.47;13.13;;;;;;;;;;5024769;28;20190;-81
2022/11/28 06:03:41;;;;;;;19.67;14.23;;;;;;;;;;5040894;28;20205;-81
2022/11/28 06:06:09;;;;;;;19.97;13.07;;;;;;;;;;5023158;28;20198;-81
2022/11/28 06:08:34;;;;;;;19.83;14.03;;;;;;;;;;5049707;28;20625;-80
2022/11/28 06:11:00;;;;;;;17.93;12.83;;;;;;;;;;5029406;28;20253;-82
2022/11/28 06:13:25;;;;;;;21.00;13.40;;;;;;;;;;5047532;28;20205;-82
2022/11/28 06:15:50;;;;;;;21.20;13.53;;;;;;;;;;5041823;28;20562;-82
2022/11/28 06:18:15;;;;;;;18.77;13.47;;;;;;;;;;5033942;28;20217;-81
2022/11/28 06:20:40;;;;;;;21.13;14.03;;;;;;;;;;5047460;28;20186;-82
2022/11/28 06:23:06;;;;;;;20.33;13.97;;;;;;;;;;5023444;28;20234;-81
2022/11/28 06:25:31;;;;;;;24.20;15.90;;;;;;;;;;5019605;28;20198;-81
2022/11/28 06:27:56;;;;;;;22.57;15.57;;;;;;;;;;5027414;28;20208;-81
2022/11/28 06:30:21;;;;;;;24.33;14.90;;;;;;;;;;5027360;28;20183;-81
2022/11/28 06:32:46;;;;;;;22.47;14.47;;;;;;;;;;5045435;28;20202;-81
2022/11/28 06:35:12;;;;;;;24.30;14.83;;;;;;;;;;5045842;28;20198;-81
2022/11/28 06:37:37;;;;;;;24.03;14.87;;;;;;;;;;5023709;28;20281;-81
2022/11/28 06:40:02;;;;;;;26.43;15.77;;;;;;;;;;5027603;28;20218;-81
2022/11/28 06:42:27;;;;;;;24.60;15.10;;;;;;;;;;5025394;28;20224;-81
2022/11/28 06:44:53;;;;;;;29.90;17.07;;;;;;;;;;5027875;28;20179;-81
2022/11/28 06:47:18;;;;;;;25.23;15.63;;;;;;;;;;5043839;28;20208;-81
2022/11/28 06:49:43;;;;;;;30.47;17.43;;;;;;;;;;5046729;28;20329;-81
2022/11/28 06:52:08;;;;;;;28.70;17.20;;;;;;;;;;5025719;28;20287;-81
2022/11/28 06:54:33;;;;;;;29.67;16.57;;;;;;;;;;5044626;28;20587;-81
2022/11/28 06:56:59;;;;;;;28.57;17.03;;;;;;;;;;5028290;28;20194;-81
2022/11/28 06:59:24;;;;;;;32.47;17.57;;;;;;;;;;5046665;28;20243;-81
2022/11/28 07:01:49;;;;;;;33.80;18.37;;;;;;;;;;5032292;28;20202;-81
2022/11/28 07:04:14;;;;;;;27.17;17.20;;;;;;;;;;5030187;28;20232;-81
2022/11/28 07:06:39;;;;;;;30.93;17.83;;;;;;;;;;5045113;28;20198;-81
2022/11/28 07:09:05;;;;;;;33.43;18.13;;;;;;;;;;5045237;28;20178;-81
2022/11/28 07:11:30;;;;;;;30.73;18.57;;;;;;;;;;5027374;28;20758;-81
2022/11/28 07:13:56;;;;;;;32.50;18.70;;;;;;;;;;5028168;28;20182;-81
2022/11/28 07:16:23;;;;;;;35.00;18.30;;;;;;;;;;5044314;28;20394;-81
2022/11/28 07:18:48;;;;;;;33.50;18.90;;;;;;;;;;5023068;28;20198;-81
2022/11/28 07:21:14;;;;;;;34.07;18.77;;;;;;;;;;5043645;28;20213;-81
2022/11/28 07:23:39;;;;;;;33.00;19.50;;;;;;;;;;5039015;28;20213;-82
2022/11/28 07:26:05;;;;;;;37.83;19.80;;;;;;;;;;5030107;28;20178;-82
2022/11/28 07:28:32;;;;;;;37.77;19.87;;;;;;;;;;5030234;28;20193;-83
2022/11/28 07:31:02;;;;;;;33.00;19.40;;;;;;;;;;5050535;22;20244;-74
2022/11/28 07:33:27;;;;;;;43.97;23.27;;;;;;;;;;5029120;28;20190;-74
2022/11/28 07:35:53;;;;;;;43.40;21.67;;;;;;;;;;5023876;28;20648;-74
2022/11/28 07:38:18;;;;;;;37.80;20.70;;;;;;;;;;5013072;28;20696;-74
2022/11/28 07:40:43;;;;;;;47.27;22.70;;;;;;;;;;5029062;28;20206;-74
2022/11/28 07:43:09;;;;;;;47.23;22.97;;;;;;;;;;5013639;28;20238;-74
2022/11/28 07:45:37;;;;;;;44.50;22.97;;;;;;;;;;5030846;28;20166;-73
2022/11/28 07:48:02;;;;;;;41.83;21.97;;;;;;;;;;5031197;28;20174;-73
2022/11/28 07:50:27;;;;;;;43.73;22.67;;;;;;;;;;5030249;28;20190;-74
2022/11/28 07:52:53;;;;;;;49.80;24.00;;;;;;;;;;5020166;28;20560;-74
2022/11/28 07:55:18;;;;;;;43.50;21.93;;;;;;;;;;5031121;28;20217;-74
2022/11/28 07:57:43;;;;;;;40.30;21.33;;;;;;;;;;5031150;28;20220;-74
2022/11/28 08:00:08;;;;;;;43.03;22.03;;;;;;;;;;5029170;28;20505;-74
2022/11/28 08:02:33;;;;;;;39.67;22.00;;;;;;;;;;5022470;28;20210;-74
2022/11/28 08:04:59;;;;;;;41.63;22.37;;;;;;;;;;5014280;28;20267;-74
2022/11/28 08:07:24;;;;;;;42.13;22.67;;;;;;;;;;5013640;28;20612;-74
2022/11/28 08:09:49;;;;;;;43.03;21.83;;;;;;;;;;5030995;28;20200;-74
2022/11/28 08:12:14;;;;;;;43.13;20.97;;;;;;;;;;5030498;28;20662;-74
2022/11/28 08:14:39;;;;;;;46.10;24.40;;;;;;;;;;5030202;28;20583;-73
2022/11/28 08:17:05;;;;;;;44.27;22.67;;;;;;;;;;5027046;28;20197;-74
2022/11/28 08:19:30;;;;;;;43.63;22.23;;;;;;;;;;5037396;28;20179;-73
2022/11/28 08:21:55;;;;;;;42.57;22.70;;;;;;;;;;5037075;28;20197;-74
2022/11/28 08:24:20;;;;;;;44.53;24.03;;;;;;;;;;5036007;28;20574;-74
2022/11/28 08:26:45;;;;;;;57.37;24.97;;;;;;;;;;5038917;28;20257;-74
2022/11/28 08:29:11;;;;;;;46.47;23.20;;;;;;;;;;5033848;28;20185;-73
2022/11/28 08:31:37;;;;;;;45.20;22.47;;;;;;;;;;5034077;28;20790;-73
2022/11/28 08:34:04;;;;;;;47.13;22.27;;;;;;;;;;5033026;28;20807;-74
2022/11/28 08:36:29;;;;;;;47.83;23.30;;;;;;;;;;5029686;28;20210;-74
2022/11/28 08:38:55;;;;;;;46.33;22.57;;;;;;;;;;5034362;28;20198;-74
2022/11/28 08:41:21;;;;;;;50.83;23.70;;;;;;;;;;5032629;28;20194;-74
2022/11/28 08:43:46;;;;;;;52.63;25.53;;;;;;;;;;5031826;28;20202;-74
2022/11/28 08:46:13;;;;;;;55.50;24.83;;;;;;;;;;5031112;28;20228;-73
2022/11/28 08:48:39;;;;;;;47.07;23.67;;;;;;;;;;5033623;28;20186;-74
2022/11/28 08:51:04;;;;;;;52.50;24.53;;;;;;;;;;5036893;28;20272;-75
2022/11/28 08:53:30;;;;;;;50.97;23.20;;;;;;;;;;5026909;28;20290;-72
2022/11/28 08:55:55;;;;;;;51.00;24.90;;;;;;;;;;5034277;28;20593;-74
2022/11/28 08:58:21;;;;;;;51.27;25.13;;;;;;;;;;5032166;28;20613;-72
2022/11/28 09:00:46;;;;;;;53.93;25.10;;;;;;;;;;5032691;28;20569;-74
2022/11/28 09:03:12;;;;;;;59.67;25.77;;;;;;;;;;5034136;28;20688;-74
2022/11/28 09:05:38;;;;;;;52.43;24.37;;;;;;;;;;5016097;28;20258;-71
2022/11/28 09:08:03;;;;;;;59.37;24.73;;;;;;;;;;5034074;28;20213;-74
2022/11/28 09:10:28;;;;;;;52.07;23.90;;;;;;;;;;5033390;28;20193;-74
2022/11/28 09:12:53;;;;;;;53.90;24.17;;;;;;;;;;5031639;28;20178;-74
2022/11/28 09:15:19;;;;;;;52.47;25.00;;;;;;;;;;5033563;28;20167;-74
2022/11/28 09:17:44;;;;;;;59.37;26.50;;;;;;;;;;5034243;28;20185;-74
2022/11/28 09:20:10;;;;;;;52.73;23.57;;;;;;;;;;5034042;28;20178;-74
2022/11/28 09:22:35;;;;;;;58.67;24.47;;;;;;;;;;5032473;28;20202;-74
2022/11/28 09:25:00;;;;;;;60.93;23.87;;;;;;;;;;5033044;28;20252;-74
2022/11/28 09:27:26;;;;;;;62.43;25.57;;;;;;;;;;5032307;28;20632;-74
2022/11/28 09:29:51;;;;;;;63.30;25.60;;;;;;;;;;5006374;28;20170;-74
2022/11/28 09:32:16;;;;;;;57.17;24.43;;;;;;;;;;5030519;28;20214;-74
2022/11/28 09:34:41;;;;;;;54.93;23.97;;;;;;;;;;5033776;28;20209;-74
2022/11/28 09:37:06;;;;;;;60.93;25.30;;;;;;;;;;5033706;28;20178;-72
2022/11/28 09:39:32;;;;;;;55.07;23.53;;;;;;;;;;5033836;28;20192;-72
2022/11/28 09:42:05;;;;;;;60.10;26.93;;;;;;;;;;5032947;28;20202;-73
2022/11/28 09:44:42;;;;;;;63.23;25.90;;;;;;;;;;5033987;28;20210;-73
2022/11/28 09:47:18;;;;;;;54.97;24.73;;;;;;;;;;5033854;28;20272;-73
2022/11/28 09:50:05;;;;;;;57.17;25.30;;;;;;;;;;5029183;28;20678;-73
2022/11/28 09:52:31;;;;;;;57.90;25.20;;;;;;;;;;5023833;28;20281;-73
2022/11/28 09:55:01;;;;;;;56.27;24.17;;;;;;;;;;5033691;28;20265;-73
2022/11/28 09:57:36;;;;;;;57.17;24.93;;;;;;;;;;5031798;28;20178;-73
2022/11/28 10:00:01;;;;;;;49.80;23.87;;;;;;;;;;5030127;28;20178;-72
2022/11/28 10:02:30;;;;;;;54.90;26.07;;;;;;;;;;5030462;28;20213;-73
2022/11/28 10:05:14;;;;;;;53.30;24.70;;;;;;;;;;5032319;28;20690;-73
2022/11/28 10:07:46;;;;;;;53.53;23.63;;;;;;;;;;5009350;28;20179;-73
2022/11/28 10:10:14;;;;;;;45.63;23.63;;;;;;;;;;5033093;28;20178;-73
2022/11/28 10:12:56;;;;;;;48.37;22.87;;;;;;;;;;5029553;28;20462;-73
2022/11/28 10:15:31;;;;;;;42.13;21.27;;;;;;;;;;5033071;28;20556;-73
2022/11/28 10:18:00;;;;;;;39.03;21.00;;;;;;;;;;5033022;28;20475;-72
2022/11/28 10:20:31;;;;;;;39.53;19.38;;;;;;;;;;5032034;28;20190;-73
2022/11/28 10:22:57;;;;;;;38.23;18.83;;;;;;;;;;5030822;28;20245;-73
2022/11/28 10:25:28;;;;;;;32.73;18.93;;;;;;;;;;5027386;28;20205;-72
2022/11/28 10:27:54;;;;;;;32.60;17.67;;;;;;;;;;5033074;28;20687;-73
2022/11/28 10:30:19;;;;;;;35.03;18.40;;;;;;;;;;5030779;28;20202;-73
2022/11/28 10:32:48;;;;;;;28.43;16.87;;;;;;;;;;5027056;28;20247;-72
2022/11/28 10:35:13;;;;;;;30.50;16.60;;;;;;;;;;5029392;28;20178;-72
2022/11/28 10:37:38;;;;;;;33.53;17.30;;;;;;;;;;5028520;28;20224;-72
2022/11/28 10:40:13;;;;;;;30.13;15.77;;;;;;;;;;5031108;28;20201;-72
2022/11/28 10:42:49;;;;;;;26.93;15.40;;;;;;;;;;5031479;28;20655;-74
2022/11/28 10:45:14;;;;;;;32.00;17.27;;;;;;;;;;5014515;28;20268;-72
2022/11/28 10:47:48;;;;;;;25.53;16.07;;;;;;;;;;5032224;28;20202;-72
2022/11/28 10:50:13;;;;;;;26.90;15.67;;;;;;;;;;5026187;28;20193;-74
2022/11/28 10:52:43;;;;;;;28.77;16.40;;;;;;;;;;5029042;28;20178;-72
2022/11/28 10:55:10;;;;;;;28.03;15.83;;;;;;;;;;5031685;28;20221;-73
2022/11/28 10:58:00;;;;;;;26.77;14.77;;;;;;;;;;5029391;28;20193;-73
2022/11/28 11:00:25;;;;;;;23.73;14.57;;;;;;;;;;5012877;28;20174;-73
2022/11/28 11:02:54;;;;;;;23.90;14.23;;;;;;;;;;5029504;28;20745;-73
2022/11/28 11:05:20;;;;;;;26.27;16.07;;;;;;;;;;5014027;28;20178;-72
2022/11/28 11:07:53;;;;;;;29.40;15.67;;;;;;;;;;5032233;28;20178;-72
2022/11/28 11:10:28;;;;;;;25.07;14.90;;;;;;;;;;5028454;28;20182;-72
2022/11/28 11:12:54;;;;;;;29.80;15.27;;;;;;;;;;5029482;28;20185;-72
2022/11/28 11:15:21;;;;;;;27.73;15.10;;;;;;;;;;5030472;28;20192;-72
2022/11/28 11:17:49;;;;;;;29.90;16.00;;;;;;;;;;5031488;28;20179;-72
2022/11/28 11:20:26;;;;;;;25.13;14.63;;;;;;;;;;5029996;28;20193;-72
2022/11/28 11:23:17;;;;;;;25.87;14.10;;;;;;;;;;5031303;28;20229;-72
2022/11/28 11:25:53;;;;;;;28.83;15.23;;;;;;;;;;5021768;28;20233;-72
2022/11/28 11:28:30;;;;;;;28.57;15.63;;;;;;;;;;5030685;28;20173;-72
2022/11/28 11:30:59;;;;;;;28.90;16.60;;;;;;;;;;5027381;28;20255;-72
2022/11/28 11:33:29;;;;;;;27.63;15.73;;;;;;;;;;5031491;28;20652;-72
2022/11/28 11:35:54;;;;;;;26.73;16.43;;;;;;;;;;5027271;28;20570;-72
2022/11/28 11:38:19;;;;;;;28.43;15.57;;;;;;;;;;5028592;28;20448;-72
2022/11/28 11:40:44;;;;;;;27.63;17.17;;;;;;;;;;5027296;28;20204;-72
2022/11/28 11:43:29;;;;;;;27.50;16.10;;;;;;;;;;5031666;28;20636;-72
2022/11/28 11:46:05;;;;;;;24.27;14.77;;;;;;;;;;5031422;28;20177;-72
2022/11/28 11:48:33;;;;;;;27.87;17.50;;;;;;;;;;5031516;28;20177;-72
2022/11/28 11:50:59;;;;;;;25.70;15.30;;;;;;;;;;5029686;28;20221;-72
2022/11/28 11:53:24;;;;;;;29.10;16.20;;;;;;;;;;5030134;28;20659;-72
2022/11/28 11:55:51;;;;;;;28.13;16.00;;;;;;;;;;5030786;28;20237;-72
2022/11/28 11:58:20;;;;;;;34.13;16.70;;;;;;;;;;5031216;28;20209;-72
2022/11/28 12:00:46;;;;;;;30.63;17.63;;;;;;;;;;5019015;28;20214;-72
2022/11/28 12:03:16;;;;;;;32.67;16.90;;;;;;;;;;5024891;28;20225;-72
2022/11/28 12:05:52;;;;;;;29.77;15.67;;;;;;;;;;5028009;28;20235;-73
2022/11/28 12:08:32;;;;;;;31.83;17.03;;;;;;;;;;5026699;28;20214;-72
2022/11/28 12:11:05;;;;;;;35.77;16.57;;;;;;;;;;5027834;28;20698;-72
2022/11/28 12:13:31;;;;;;;35.90;18.03;;;;;;;;;;5028552;28;20567;-73
2022/11/28 12:15:59;;;;;;;35.20;18.00;;;;;;;;;;5022497;28;20190;-72
2022/11/28 12:18:43;;;;;;;36.00;19.88;;;;;;;;;;5023583;28;20300;-72
2022/11/28 12:21:22;;;;;;;34.40;17.47;;;;;;;;;;5021383;28;20305;-72
2022/11/28 12:24:00;;;;;;;26.90;16.05;;;;;;;;;;5029185;28;20692;-72
2022/11/28 12:26:25;;;;;;;31.40;17.05;;;;;;;;;;5027535;28;20727;-72
2022/11/28 12:28:57;;;;;;;31.13;16.55;;;;;;;;;;5030070;28;20185;-72
2022/11/28 12:31:39;;;;;;;29.03;15.83;;;;;;;;;;5029490;28;20264;-73
2022/11/28 12:34:15;;;;;;;28.50;14.35;;;;;;;;;;5025382;28;20605;-72
2022/11/28 12:36:53;;;;;;;29.67;15.75;;;;;;;;;;5023566;28;20228;-72
2022/11/28 12:39:38;;;;;;;29.30;15.73;;;;;;;;;;5038714;28;20205;-71
2022/11/28 12:42:08;;;;;;;30.35;16.80;;;;;;;;;;5031823;28;20206;-72
2022/11/28 12:44:36;;;;;;;30.35;16.27;;;;;;;;;;5026794;28;20214;-72
2022/11/28 12:47:27;;;;;;;31.93;16.07;;;;;;;;;;5035169;28;20217;-73
2022/11/28 12:49:53;;;;;;;31.13;15.30;;;;;;;;;;5034656;28;20171;-72
2022/11/28 12:52:35;;;;;;;29.23;17.13;;;;;;;;;;5033357;28;20289;-72
2022/11/28 12:55:00;;;;;;;31.80;16.40;;;;;;;;;;5029846;28;20201;-72
2022/11/28 12:57:32;;;;;;;30.27;16.88;;;;;;;;;;5035300;28;20715;-72
2022/11/28 13:00:01;;;;;;;37.33;17.80;;;;;;;;;;5035438;28;20197;-72
2022/11/28 13:02:28;;;;;;;31.73;16.65;;;;;;;;;;5027168;28;20229;-72
2022/11/28 13:05:09;;;;;;;28.92;16.98;;;;;;;;;;5034126;28;20664;-72
2022/11/28 13:07:40;;;;;;;37.25;18.02;;;;;;;;;;5037886;28;20197;-72
2022/11/28 13:10:08;;;;;;;32.80;17.70;;;;;;;;;;5033536;28;20174;-72
2022/11/28 13:12:53;;;;;;;33.55;18.67;;;;;;;;;;5020596;28;20694;-73
2022/11/28 13:15:38;;;;;;;30.45;18.30;;;;;;;;;;5036035;28;20178;-72
2022/11/28 13:18:15;;;;;;;34.00;17.88;;;;;;;;;;5033725;28;20180;-73
2022/11/28 13:21:05;;;;;;;36.58;19.63;;;;;;;;;;5035385;28;20193;-73
2022/11/28 13:23:39;;;;;;;33.58;17.52;;;;;;;;;;5038397;28;20198;-72
2022/11/28 13:26:09;;;;;;;31.58;19.52;;;;;;;;;;5037947;28;20186;-74
2022/11/28 13:28:46;;;;;;;36.03;19.58;;;;;;;;;;5037326;28;20202;-73
2022/11/28 13:31:33;;;;;;;31.17;18.70;;;;;;;;;;5029570;22;20485;-80
2022/11/28 13:33:59;;;;;;;36.33;19.00;;;;;;;;;;5028784;28;20275;-80
2022/11/28 13:36:33;;;;;;;36.78;18.65;;;;;;;;;;5048977;28;20174;-79
2022/11/28 13:39:09;;;;;;;39.72;19.30;;;;;;;;;;5024630;28;20182;-81
2022/11/28 13:41:34;;;;;;;35.72;19.45;;;;;;;;;;5048246;28;20202;-80
2022/11/28 13:44:02;;;;;;;35.50;18.58;;;;;;;;;;5030532;28;20213;-80
2022/11/28 13:46:28;;;;;;;30.23;18.63;;;;;;;;;;5047763;28;20242;-80
2022/11/28 13:48:59;;;;;;;33.92;20.15;;;;;;;;;;5049430;28;20178;-81
2022/11/28 13:51:26;;;;;;;37.58;18.42;;;;;;;;;;5030009;28;20571;-80
2022/11/28 13:54:10;;;;;;;34.22;17.52;;;;;;;;;;5041154;28;20178;-81
2022/11/28 13:56:35;;;;;;;41.58;20.55;;;;;;;;;;5044001;28;20174;-80
2022/11/28 13:59:01;;;;;;;29.63;16.38;;;;;;;;;;5048580;28;20266;-78
2022/11/28 14:01:41;;;;;;;33.65;19.20;;;;;;;;;;5041597;28;20285;-80
2022/11/28 14:04:07;;;;;;;35.92;16.98;;;;;;;;;;5046808;28;20202;-80
2022/11/28 14:06:45;;;;;;;33.25;16.77;;;;;;;;;;5045691;28;20625;-80
2022/11/28 14:09:10;;;;;;;38.72;19.40;;;;;;;;;;5046795;28;20234;-80
2022/11/28 14:11:54;;;;;;;39.45;19.15;;;;;;;;;;5045406;28;20186;-80
2022/11/28 14:14:28;;;;;;;32.97;17.83;;;;;;;;;;5044528;28;20186;-81
2022/11/28 14:17:12;;;;;;;32.05;16.75;;;;;;;;;;5046767;28;20174;-80
2022/11/28 14:19:40;;;;;;;31.38;17.25;;;;;;;;;;5046379;28;20178;-80
2022/11/28 14:22:14;;;;;;;35.75;17.42;;;;;;;;;;5045894;28;20686;-80
2022/11/28 14:24:58;;;;;;;36.50;17.80;;;;;;;;;;5022701;28;20199;-80
2022/11/28 14:27:26;;;;;;;30.95;16.55;;;;;;;;;;5038033;28;20201;-80
2022/11/28 14:29:52;;;;;;;34.78;18.75;;;;;;;;;;5043944;28;20255;-80
2022/11/28 14:32:28;;;;;;;35.08;18.70;;;;;;;;;;5038773;28;20218;-81